createdAt,value
2018-12-19T00:02:15.588Z,0.27
2018-12-19T00:04:44.104Z,0.17
2018-12-19T00:07:12.650Z,0.15
2018-12-19T00:09:41.163Z,0.13
2018-12-19T00:12:09.516Z,0.01
2018-12-19T00:14:38.724Z,-0.05
2018-12-19T00:17:07.096Z,-0.02
2018-12-19T00:19:35.406Z,0.04
2018-12-19T00:22:03.856Z,0.06
2018-12-19T00:24:32.165Z,-0.06
2018-12-19T00:27:00.591Z,-0.17
2018-12-19T00:29:28.857Z,-0.16
2018-12-19T00:31:57.192Z,-0.23
2018-12-19T00:34:25.473Z,-0.29
2018-12-19T00:36:53.773Z,-0.27
2018-12-19T00:39:22.069Z,-0.39
2018-12-19T00:41:50.460Z,-0.32
2018-12-19T00:44:18.815Z,-0.06
2018-12-19T00:46:47.230Z,0.05
2018-12-19T00:49:15.582Z,0.03
2018-12-19T00:51:43.995Z,-0.18
2018-12-19T00:54:12.533Z,-0.44
2018-12-19T00:56:40.850Z,-0.62
2018-12-19T00:59:09.202Z,-0.42
2018-12-19T01:01:37.592Z,-0.43
2018-12-19T01:04:05.882Z,-0.64
2018-12-19T01:06:34.299Z,-0.51
2018-12-19T01:09:04.009Z,-0.41
2018-12-19T01:11:32.478Z,-0.35
2018-12-19T01:14:00.769Z,-0.33
2018-12-19T01:16:29.191Z,-0.36
2018-12-19T01:18:57.483Z,-0.24
2018-12-19T01:21:25.816Z,-0.36
2018-12-19T01:23:54.179Z,-0.17
2018-12-19T01:26:22.590Z,-0.19
2018-12-19T01:28:50.933Z,-0.35
2018-12-19T01:31:19.355Z,-0.08
2018-12-19T01:33:47.705Z,0.18
2018-12-19T01:36:16.229Z,0.30
2018-12-19T01:38:44.544Z,0.45
2018-12-19T01:41:12.853Z,0.47
2018-12-19T01:43:41.201Z,0.55
2018-12-19T01:46:09.500Z,0.49
2018-12-19T01:48:38.056Z,0.48
2018-12-19T01:51:06.591Z,0.54
2018-12-19T01:53:35.016Z,0.36
2018-12-19T01:56:03.852Z,0.33
2018-12-19T01:58:32.125Z,0.21
2018-12-19T02:01:00.425Z,0.25
2018-12-19T02:03:28.732Z,0.23
2018-12-19T02:05:57.139Z,0.36
2018-12-19T02:08:25.492Z,0.46
2018-12-19T02:10:53.797Z,0.49
2018-12-19T02:13:22.151Z,0.49
2018-12-19T02:15:50.542Z,0.56
2018-12-19T02:18:18.893Z,0.60
2018-12-19T02:20:47.309Z,0.66
2018-12-19T02:23:15.585Z,0.72
2018-12-19T02:25:43.948Z,0.67
2018-12-19T02:28:12.221Z,0.67
2018-12-19T02:30:40.596Z,0.77
2018-12-19T02:33:08.890Z,0.76
2018-12-19T02:35:37.181Z,0.83
2018-12-19T02:38:05.497Z,0.78
2018-12-19T02:40:33.836Z,0.84
2018-12-19T02:43:02.094Z,0.82
2018-12-19T02:45:30.444Z,0.92
2018-12-19T02:47:58.804Z,0.88
2018-12-19T02:50:27.223Z,0.69
2018-12-19T02:52:55.589Z,0.77
2018-12-19T02:55:23.891Z,0.84
2018-12-19T02:57:52.162Z,0.89
2018-12-19T03:00:20.628Z,0.88
2018-12-19T03:02:49.009Z,0.95
2018-12-19T03:05:17.497Z,1.07
2018-12-19T03:07:45.838Z,1.09
2018-12-19T03:10:14.228Z,1.09
2018-12-19T03:12:42.580Z,1.10
2018-12-19T03:15:11.074Z,0.97
2018-12-19T03:17:39.479Z,0.93
2018-12-19T03:20:08.030Z,0.98
2018-12-19T03:22:36.436Z,0.97
2018-12-19T03:25:05.098Z,0.85
2018-12-19T03:27:33.431Z,0.83
2018-12-19T03:30:01.701Z,0.73
2018-12-19T03:32:30.036Z,0.80
2018-12-19T03:34:58.392Z,0.90
2018-12-19T03:37:26.783Z,0.83
2018-12-19T03:39:55.139Z,0.66
2018-12-19T03:42:27.001Z,0.70
2018-12-19T03:44:56.733Z,0.62
2018-12-19T03:47:26.887Z,0.45
2018-12-19T03:49:55.508Z,0.60
2018-12-19T03:52:23.824Z,0.84
2018-12-19T03:54:52.273Z,0.91
2018-12-19T03:57:20.788Z,0.91
2018-12-19T03:59:49.132Z,0.98
2018-12-19T04:02:17.514Z,1.03
2018-12-19T04:04:45.878Z,0.97
2018-12-19T04:07:14.175Z,1.02
2018-12-19T04:09:42.545Z,1.03
2018-12-19T04:12:10.934Z,1.05
2018-12-19T04:14:39.226Z,1.06
2018-12-19T04:17:07.578Z,1.12
2018-12-19T04:19:35.936Z,1.18
2018-12-19T04:22:04.246Z,0.97
2018-12-19T04:24:32.646Z,0.83
2018-12-19T04:27:00.988Z,0.86
2018-12-19T04:29:29.476Z,0.90
2018-12-19T04:31:57.834Z,0.79
2018-12-19T04:34:26.250Z,0.97
2018-12-19T04:36:54.575Z,0.97
2018-12-19T04:39:23.008Z,0.89
2018-12-19T04:41:51.347Z,0.92
2018-12-19T04:44:19.744Z,1.01
2018-12-19T04:46:48.094Z,1.03
2018-12-19T04:49:16.372Z,0.98
2018-12-19T04:51:44.910Z,1.08
2018-12-19T04:54:13.256Z,1.15
2018-12-19T04:56:41.631Z,1.08
2018-12-19T04:59:09.976Z,1.08
2018-12-19T05:01:38.417Z,1.02
2018-12-19T05:04:06.708Z,1.03
2018-12-19T05:06:35.166Z,1.10
2018-12-19T05:09:05.468Z,1.17
2018-12-19T05:11:34.203Z,1.10
2018-12-19T05:14:02.496Z,1.10
2018-12-19T05:16:30.949Z,0.99
2018-12-19T05:18:59.517Z,0.93
2018-12-19T05:21:27.902Z,1.05
2018-12-19T05:23:56.332Z,0.99
2018-12-19T05:26:24.774Z,0.89
2018-12-19T05:28:53.181Z,0.93
2018-12-19T05:31:21.588Z,1.00
2018-12-19T05:33:49.917Z,1.09
2018-12-19T05:36:18.464Z,1.10
2018-12-19T05:38:46.989Z,1.08
2018-12-19T05:41:15.461Z,1.11
2018-12-19T05:43:43.840Z,1.25
2018-12-19T05:46:12.160Z,1.20
2018-12-19T05:48:40.434Z,1.20
2018-12-19T05:51:08.797Z,1.31
2018-12-19T05:53:37.148Z,1.41
2018-12-19T05:56:05.546Z,1.43
2018-12-19T05:58:33.885Z,1.55
2018-12-19T06:01:02.415Z,1.52
2018-12-19T06:03:30.760Z,1.48
2018-12-19T06:05:59.235Z,1.47
2018-12-19T06:08:27.630Z,1.39
2018-12-19T06:10:55.992Z,1.37
2018-12-19T06:13:24.293Z,1.33
2018-12-19T06:15:52.646Z,1.47
2018-12-19T06:18:20.948Z,1.45
2018-12-19T06:20:49.244Z,1.41
2018-12-19T06:23:17.757Z,1.39
2018-12-19T06:25:46.314Z,1.43
2018-12-19T06:28:14.680Z,1.31
2018-12-19T06:30:43.162Z,1.37
2018-12-19T06:33:11.503Z,1.49
2018-12-19T06:35:40.191Z,1.54
2018-12-19T06:38:08.588Z,1.62
2018-12-19T06:40:36.959Z,1.55
2018-12-19T06:43:05.432Z,1.62
2018-12-19T06:45:34.025Z,1.62
2018-12-19T06:48:02.740Z,1.61
2018-12-19T06:50:31.487Z,1.70
2018-12-19T06:53:00.758Z,1.65
2018-12-19T06:55:29.540Z,1.53
2018-12-19T06:57:57.863Z,1.57
2018-12-19T07:00:26.377Z,1.54
2018-12-19T07:02:54.743Z,1.55
2018-12-19T07:05:23.075Z,1.55
2018-12-19T07:08:06.565Z,1.63
2018-12-19T07:10:39.070Z,1.61
2018-12-19T07:13:05.566Z,1.58
2018-12-19T07:15:34.057Z,1.57
2018-12-19T07:18:02.581Z,1.59
2018-12-19T07:20:31.120Z,1.56
2018-12-19T07:22:59.729Z,1.60
2018-12-19T07:25:28.195Z,1.72
2018-12-19T07:27:56.673Z,1.61
2018-12-19T07:30:25.040Z,1.71
2018-12-19T07:32:53.465Z,1.58
2018-12-19T07:35:21.763Z,1.62
2018-12-19T07:37:50.701Z,1.68
2018-12-19T07:40:19.046Z,1.70
2018-12-19T07:42:47.427Z,1.64
2018-12-19T07:45:15.701Z,1.59
2018-12-19T07:47:44.068Z,1.74
2018-12-19T07:50:12.451Z,1.68
2018-12-19T07:52:41.352Z,1.65
2018-12-19T07:55:09.674Z,1.89
2018-12-19T07:57:38.139Z,1.79
2018-12-19T08:00:06.716Z,1.78
2018-12-19T08:02:35.108Z,1.74
2018-12-19T08:05:03.572Z,1.75
2018-12-19T08:07:32.140Z,1.80
2018-12-19T08:10:00.695Z,1.86
2018-12-19T08:12:29.201Z,1.89
2018-12-19T08:15:01.633Z,1.85
2018-12-19T08:17:30.044Z,1.83
2018-12-19T08:19:58.333Z,1.78
2018-12-19T08:22:26.696Z,1.77
2018-12-19T08:24:54.964Z,1.78
2018-12-19T08:27:23.339Z,1.77
2018-12-19T08:29:51.717Z,1.73
2018-12-19T08:32:20.037Z,1.82
2018-12-19T08:34:48.482Z,1.70
2018-12-19T08:37:17.098Z,1.73
2018-12-19T08:39:45.426Z,1.88
2018-12-19T08:42:13.816Z,2.07
2018-12-19T08:44:42.165Z,2.02
2018-12-19T08:47:10.494Z,2.08
2018-12-19T08:49:38.861Z,2.20
2018-12-19T08:52:07.245Z,2.22
2018-12-19T08:54:35.736Z,2.26
2018-12-19T08:57:04.159Z,2.38
2018-12-19T08:59:32.576Z,2.36
2018-12-19T09:02:00.909Z,2.32
2018-12-19T09:04:29.296Z,2.35
2018-12-19T09:06:57.685Z,2.39
2018-12-19T09:09:26.238Z,2.41
2018-12-19T09:11:54.536Z,2.55
2018-12-19T09:14:22.845Z,2.53
2018-12-19T09:16:51.151Z,2.57
2018-12-19T09:19:19.447Z,2.59
2018-12-19T09:21:47.957Z,2.86
2018-12-19T09:24:16.302Z,2.73
2018-12-19T09:26:44.648Z,2.68
2018-12-19T09:29:13.068Z,2.67
2018-12-19T09:31:46.107Z,2.66
2018-12-19T09:34:15.257Z,2.78
2018-12-19T09:36:43.653Z,2.82
2018-12-19T09:39:12.077Z,2.76
2018-12-19T09:41:40.454Z,2.83
2018-12-19T09:44:08.885Z,2.84
2018-12-19T09:46:37.351Z,2.81
2018-12-19T09:49:12.245Z,2.91
2018-12-19T09:51:35.994Z,2.90
2018-12-19T09:54:04.478Z,2.92
2018-12-19T09:56:32.784Z,3.09
2018-12-19T09:59:01.093Z,3.22
2018-12-19T10:01:29.548Z,3.31
2018-12-19T10:03:58.787Z,3.37
2018-12-19T10:06:27.977Z,3.40
2018-12-19T10:08:56.446Z,3.43
2018-12-19T10:11:24.875Z,3.44
2018-12-19T10:13:53.295Z,3.45
2018-12-19T10:16:21.640Z,3.54
2018-12-19T10:18:49.952Z,3.56
2018-12-19T10:21:18.437Z,3.68
2018-12-19T10:23:46.789Z,3.68
2018-12-19T10:26:15.327Z,3.68
2018-12-19T10:28:43.649Z,3.72
2018-12-19T10:31:11.975Z,3.71
2018-12-19T10:33:40.483Z,3.71
2018-12-19T10:36:08.990Z,3.78
2018-12-19T10:38:37.293Z,3.82
2018-12-19T10:41:05.627Z,3.77
2018-12-19T10:43:34.419Z,3.84
2018-12-19T10:46:02.856Z,3.84
2018-12-19T10:48:31.211Z,3.86
2018-12-19T10:50:59.540Z,3.89
2018-12-19T10:53:27.864Z,4.04
2018-12-19T10:55:56.217Z,3.99
2018-12-19T10:58:24.581Z,4.02
2018-12-19T11:01:00.394Z,4.04
2018-12-19T11:03:28.756Z,4.08
2018-12-19T11:05:57.211Z,4.08
2018-12-19T11:08:25.715Z,4.07
2018-12-19T11:10:54.168Z,4.06
2018-12-19T11:13:22.548Z,4.08
2018-12-19T11:15:50.926Z,4.19
2018-12-19T11:18:19.327Z,4.27
2018-12-19T11:20:47.664Z,4.25
2018-12-19T11:23:15.971Z,4.28
2018-12-19T11:25:44.298Z,4.18
2018-12-19T11:28:12.692Z,4.20
2018-12-19T11:30:41.080Z,4.21
2018-12-19T11:33:09.481Z,4.23
2018-12-19T11:35:37.839Z,4.23
2018-12-19T11:38:06.251Z,4.31
2018-12-19T11:40:34.815Z,4.31
2018-12-19T11:43:03.156Z,4.29
2018-12-19T11:45:31.476Z,4.28
2018-12-19T11:47:59.825Z,4.28
2018-12-19T11:50:28.149Z,4.37
2018-12-19T11:52:58.258Z,4.42
2018-12-19T11:55:26.695Z,4.45
2018-12-19T11:57:55.012Z,4.44
2018-12-19T12:00:23.350Z,4.46
2018-12-19T12:02:51.755Z,4.53
2018-12-19T12:05:20.061Z,4.55
2018-12-19T12:07:48.397Z,4.52
2018-12-19T12:10:16.760Z,4.50
2018-12-19T12:12:45.170Z,4.50
2018-12-19T12:15:13.754Z,4.58
2018-12-19T12:17:42.101Z,4.61
2018-12-19T12:20:10.453Z,4.66
2018-12-19T12:22:41.198Z,4.67
2018-12-19T12:25:09.735Z,4.73
2018-12-19T12:27:38.257Z,4.74
2018-12-19T12:30:07.373Z,4.77
2018-12-19T12:32:35.854Z,4.74
2018-12-19T12:35:05.923Z,4.76
2018-12-19T12:37:36.752Z,4.86
2018-12-19T12:40:05.886Z,4.85
2018-12-19T12:42:35.524Z,4.90
2018-12-19T12:45:08.837Z,4.88
2018-12-19T12:47:38.571Z,4.84
2018-12-19T12:50:07.593Z,4.86
2018-12-19T12:52:37.189Z,4.86
2018-12-19T12:55:06.842Z,4.75
2018-12-19T12:57:36.227Z,4.73
2018-12-19T13:00:06.956Z,4.73
2018-12-19T13:02:36.479Z,4.75
2018-12-19T13:05:06.718Z,4.67
2018-12-19T13:07:36.058Z,4.67
2018-12-19T13:10:05.578Z,4.58
2018-12-19T13:12:33.863Z,4.60
2018-12-19T13:15:02.268Z,4.55
2018-12-19T13:17:30.580Z,4.54
2018-12-19T13:19:59.003Z,4.57
2018-12-19T13:22:27.440Z,4.55
2018-12-19T13:24:55.775Z,4.55
2018-12-19T13:27:24.111Z,4.51
2018-12-19T13:29:52.457Z,4.55
2018-12-19T13:32:20.876Z,4.56
2018-12-19T13:34:49.211Z,4.58
2018-12-19T13:37:17.998Z,4.57
2018-12-19T13:39:46.493Z,4.60
2018-12-19T13:42:15.019Z,4.70
2018-12-19T13:44:43.367Z,4.72
2018-12-19T13:47:11.859Z,4.83
2018-12-19T13:49:40.372Z,4.75
2018-12-19T13:52:08.804Z,4.79
2018-12-19T13:54:37.418Z,4.81
2018-12-19T13:57:05.841Z,4.72
2018-12-19T13:59:34.284Z,4.69
2018-12-19T14:02:03.116Z,4.68
2018-12-19T14:04:32.048Z,4.69
2018-12-19T14:07:01.067Z,4.65
2018-12-19T14:09:29.406Z,4.63
2018-12-19T14:11:57.745Z,4.73
2018-12-19T14:14:26.165Z,4.75
2018-12-19T14:16:54.481Z,4.74
2018-12-19T14:19:22.816Z,4.75
2018-12-19T14:21:51.117Z,4.72
2018-12-19T14:24:19.566Z,4.68
2018-12-19T14:26:47.937Z,4.70
2018-12-19T14:29:16.276Z,4.81
2018-12-19T14:31:44.582Z,4.75
2018-12-19T14:34:12.905Z,4.68
2018-12-19T14:36:41.209Z,4.59
2018-12-19T14:39:09.554Z,4.75
2018-12-19T14:41:37.916Z,4.61
2018-12-19T14:44:06.453Z,4.51
2018-12-19T14:46:35.011Z,4.59
2018-12-19T14:49:03.643Z,4.47
2018-12-19T14:51:32.307Z,4.41
2018-12-19T14:54:00.676Z,4.39
2018-12-19T14:56:31.745Z,4.49
2018-12-19T14:59:00.096Z,4.37
2018-12-19T15:01:30.682Z,4.35
2018-12-19T15:04:00.787Z,4.33
2018-12-19T15:06:29.882Z,4.34
2018-12-19T15:08:59.054Z,4.31
2018-12-19T15:11:27.432Z,4.29
2018-12-19T15:13:55.872Z,4.21
2018-12-19T15:16:24.764Z,4.32
2018-12-19T15:18:53.252Z,4.22
2018-12-19T15:21:21.769Z,4.24
2018-12-19T15:23:50.809Z,4.20
2018-12-19T15:26:19.745Z,4.15
2018-12-19T15:28:48.853Z,4.20
2018-12-19T15:31:18.411Z,4.14
2018-12-19T15:33:46.863Z,4.16
2018-12-19T15:36:15.505Z,4.12
2018-12-19T15:38:44.057Z,4.18
2018-12-19T15:41:13.264Z,4.11
2018-12-19T15:43:42.986Z,4.13
2018-12-19T15:46:12.970Z,4.20
2018-12-19T15:48:41.791Z,4.21
2018-12-19T15:51:10.556Z,4.15
2018-12-19T15:53:39.626Z,4.15
2018-12-19T15:56:08.444Z,4.17
2018-12-19T15:58:36.862Z,4.45
2018-12-19T16:01:05.464Z,4.83
2018-12-19T16:03:34.059Z,4.62
2018-12-19T16:06:03.081Z,4.42
2018-12-19T16:08:31.970Z,4.55
2018-12-19T16:11:00.735Z,4.20
2018-12-19T16:13:29.551Z,4.17
2018-12-19T16:15:58.896Z,4.13
2018-12-19T16:18:27.574Z,4.08
2018-12-19T16:20:56.154Z,3.96
2018-12-19T16:23:24.697Z,3.66
2018-12-19T16:25:53.398Z,3.67
2018-12-19T16:28:22.172Z,3.66
2018-12-19T16:30:50.880Z,3.59
2018-12-19T16:33:19.433Z,3.47
2018-12-19T16:35:48.154Z,3.45
2018-12-19T16:38:16.659Z,3.25
2018-12-19T16:40:45.172Z,3.16
2018-12-19T16:43:30.485Z,2.89
2018-12-19T16:45:58.898Z,2.83
2018-12-19T16:48:27.215Z,2.91
2018-12-19T16:50:55.531Z,3.06
2018-12-19T16:53:23.838Z,3.17
2018-12-19T16:55:52.177Z,3.24
2018-12-19T16:58:20.569Z,3.27
2018-12-19T17:00:48.906Z,3.32
2018-12-19T17:03:17.426Z,3.35
2018-12-19T17:05:45.835Z,3.42
2018-12-19T17:08:14.171Z,3.49
2018-12-19T17:10:42.580Z,3.54
2018-12-19T17:13:10.950Z,3.52
2018-12-19T17:15:39.272Z,3.59
2018-12-19T17:18:07.837Z,3.58
2018-12-19T17:20:36.294Z,3.54
2018-12-19T17:23:04.621Z,3.66
2018-12-19T17:25:33.092Z,3.53
2018-12-19T17:28:01.395Z,3.47
2018-12-19T17:30:29.684Z,3.47
2018-12-19T17:32:58.069Z,3.51
2018-12-19T17:35:26.355Z,3.42
2018-12-19T17:37:54.748Z,3.32
2018-12-19T17:40:23.155Z,3.19
2018-12-19T17:42:51.568Z,3.14
2018-12-19T17:45:19.936Z,3.17
2018-12-19T17:47:48.317Z,3.14
2018-12-19T17:50:17.784Z,3.20
2018-12-19T17:52:46.173Z,3.19
2018-12-19T17:55:14.545Z,3.26
2018-12-19T17:57:42.977Z,3.17
2018-12-19T18:00:12.496Z,3.19
2018-12-19T18:02:40.976Z,3.13
2018-12-19T18:05:09.304Z,3.19
2018-12-19T18:07:37.695Z,3.27
2018-12-19T18:10:06.490Z,3.24
2018-12-19T18:12:34.981Z,3.28
2018-12-19T18:15:03.443Z,3.30
2018-12-19T18:17:31.819Z,3.29
2018-12-19T18:20:00.193Z,3.35
2018-12-19T18:22:28.594Z,3.28
2018-12-19T18:24:56.957Z,3.31
2018-12-19T18:27:25.330Z,3.28
2018-12-19T18:29:53.710Z,3.26
2018-12-19T18:32:22.053Z,3.27
2018-12-19T18:34:50.571Z,3.24
2018-12-19T18:37:19.058Z,3.23
2018-12-19T18:39:47.349Z,3.22
2018-12-19T18:42:15.705Z,3.20
2018-12-19T18:44:44.008Z,3.12
2018-12-19T18:47:12.424Z,3.08
2018-12-19T18:49:40.832Z,3.04
2018-12-19T18:52:09.183Z,3.04
2018-12-19T18:54:37.586Z,2.97
2018-12-19T18:57:06.162Z,2.93
2018-12-19T18:59:34.497Z,2.96
2018-12-19T19:02:02.972Z,2.96
2018-12-19T19:04:33.806Z,2.91
2018-12-19T19:07:02.227Z,2.88
2018-12-19T19:09:30.934Z,2.81
2018-12-19T19:11:59.302Z,2.74
2018-12-19T19:14:27.669Z,2.78
2018-12-19T19:16:56.048Z,2.73
2018-12-19T19:19:24.667Z,2.75
2018-12-19T19:21:53.008Z,2.80
2018-12-19T19:24:21.409Z,2.77
2018-12-19T19:26:49.734Z,2.74
2018-12-19T19:29:18.409Z,2.44
2018-12-19T19:31:47.016Z,2.46
2018-12-19T19:34:15.763Z,2.35
2018-12-19T19:36:44.452Z,2.39
2018-12-19T19:39:12.900Z,2.36
2018-12-19T19:41:41.643Z,2.29
2018-12-19T19:44:10.408Z,2.13
2018-12-19T19:46:38.710Z,1.70
2018-12-19T19:49:07.302Z,1.55
2018-12-19T19:51:36.738Z,1.66
2018-12-19T19:54:05.096Z,1.60
2018-12-19T19:56:33.467Z,1.55
2018-12-19T19:59:02.062Z,1.35
2018-12-19T20:01:30.555Z,1.34
2018-12-19T20:03:58.927Z,1.26
2018-12-19T20:06:27.357Z,1.18
2018-12-19T20:08:57.006Z,1.16
2018-12-19T20:11:25.436Z,1.12
2018-12-19T20:13:55.431Z,1.33
2018-12-19T20:16:23.760Z,1.49
2018-12-19T20:18:52.273Z,1.70
2018-12-19T20:21:20.616Z,1.63
2018-12-19T20:23:49.117Z,1.61
2018-12-19T20:26:17.453Z,1.63
2018-12-19T20:28:46.257Z,1.49
2018-12-19T20:31:14.914Z,1.74
2018-12-19T20:33:43.328Z,1.56
2018-12-19T20:36:11.911Z,1.54
2018-12-19T20:38:40.399Z,1.61
2018-12-19T20:41:08.773Z,1.81
2018-12-19T20:43:40.124Z,1.70
2018-12-19T20:46:07.756Z,1.88
2018-12-19T20:48:36.161Z,1.85
2018-12-19T20:51:05.091Z,1.79
2018-12-19T20:53:33.582Z,1.78
2018-12-19T20:56:03.857Z,2.03
2018-12-19T20:58:32.376Z,1.92
2018-12-19T21:01:00.856Z,1.77
2018-12-19T21:03:29.419Z,1.76
2018-12-19T21:05:57.998Z,1.83
2018-12-19T21:08:26.358Z,1.93
2018-12-19T21:10:54.712Z,1.79
2018-12-19T21:13:23.211Z,2.00
2018-12-19T21:15:52.667Z,2.05
2018-12-19T21:18:26.500Z,2.01
2018-12-19T21:20:55.125Z,1.91
2018-12-19T21:23:23.448Z,2.00
2018-12-19T21:25:51.840Z,1.86
2018-12-19T21:28:20.435Z,1.86
2018-12-19T21:30:48.890Z,1.90
2018-12-19T21:33:17.447Z,1.83
2018-12-19T21:35:46.716Z,1.97
2018-12-19T21:38:15.137Z,2.20
2018-12-19T21:40:43.932Z,2.29
2018-12-19T21:43:12.458Z,2.34
2018-12-19T21:45:40.921Z,2.40
2018-12-19T21:48:09.252Z,2.46
2018-12-19T21:50:37.994Z,2.57
2018-12-19T21:53:06.424Z,2.49
2018-12-19T21:55:34.812Z,2.50
2018-12-19T21:58:03.188Z,2.55
2018-12-19T22:00:37.662Z,2.46
2018-12-19T22:03:07.286Z,2.40
2018-12-19T22:05:37.899Z,2.30
2018-12-19T22:08:06.883Z,2.23
2018-12-19T22:10:35.625Z,2.37
2018-12-19T22:13:04.426Z,2.47
2018-12-19T22:15:33.088Z,2.44
2018-12-19T22:18:07.043Z,2.38
2018-12-19T22:20:35.879Z,2.45
2018-12-19T22:23:05.076Z,2.28
2018-12-19T22:25:33.856Z,2.31
2018-12-19T22:28:02.515Z,2.38
2018-12-19T22:30:31.723Z,2.37
2018-12-19T22:33:00.310Z,2.46
2018-12-19T22:35:28.815Z,2.62
2018-12-19T22:37:57.174Z,2.52
2018-12-19T22:40:25.794Z,2.62
2018-12-19T22:42:54.183Z,2.68
2018-12-19T22:45:22.540Z,2.65
2018-12-19T22:47:50.906Z,2.57
2018-12-19T22:50:19.428Z,2.67
2018-12-19T22:52:47.757Z,2.67
2018-12-19T22:55:16.160Z,2.63
2018-12-19T22:57:44.806Z,2.58
2018-12-19T23:00:19.828Z,2.60
2018-12-19T23:02:53.437Z,2.57
2018-12-19T23:05:27.297Z,2.67
2018-12-19T23:07:55.696Z,2.64
2018-12-19T23:10:24.168Z,2.65
2018-12-19T23:12:52.517Z,2.67
2018-12-19T23:15:21.538Z,2.60
2018-12-19T23:17:50.175Z,2.71
2018-12-19T23:20:18.813Z,2.67
2018-12-19T23:22:47.162Z,2.79
2018-12-19T23:25:15.484Z,2.78
2018-12-19T23:27:43.819Z,2.88
2018-12-19T23:30:12.344Z,2.83
2018-12-19T23:32:40.658Z,2.84
2018-12-19T23:35:09.171Z,2.84
2018-12-19T23:37:37.781Z,2.92
2018-12-19T23:40:06.588Z,2.88
2018-12-19T23:42:35.039Z,2.88
2018-12-19T23:45:03.542Z,2.77
2018-12-19T23:47:32.033Z,2.78
2018-12-19T23:50:00.477Z,2.82
2018-12-19T23:52:28.905Z,2.75
2018-12-19T23:54:57.266Z,2.69
2018-12-19T23:57:25.585Z,2.68
2018-12-19T23:59:54.037Z,2.81
